sensor_id;sensor_type;location;lat;lon;timestamp;pressure;altitude;pressure_sealevel;temperature;humidity
68965;BME280;56017;48.680;8.998;2023-03-14T00:03:37;95140;;;9.5;77.5
68965;BME280;56017;48.680;8.998;2023-03-14T00:06:08;95140;;;9.5;77.5
68965;BME280;56017;48.680;8.998;2023-03-14T00:08:39;95130;;;9.5;77.5
68965;BME280;56017;48.680;8.998;2023-03-14T00:11:11;95120;;;9.5;77.5
68965;BME280;56017;48.680;8.998;2023-03-14T00:13:41;95120;;;9.6;77.5
68965;BME280;56017;48.680;8.998;2023-03-14T00:16:12;95120;;;9.6;77.5
68965;BME280;56017;48.680;8.998;2023-03-14T00:18:43;95100;;;9.6;77.5
68965;BME280;56017;48.680;8.998;2023-03-14T00:21:13;95100;;;9.6;77.5
68965;BME280;56017;48.680;8.998;2023-03-14T00:23:44;95100;;;9.6;77.5
68965;BME280;56017;48.680;8.998;2023-03-14T00:26:16;95090;;;9.6;77.5
68965;BME280;56017;48.680;8.998;2023-03-14T00:28:47;95100;;;9.6;77.5
68965;BME280;56017;48.680;8.998;2023-03-14T00:31:17;95100;;;9.7;77.5
68965;BME280;56017;48.680;8.998;2023-03-14T00:33:55;95110;;;9.7;77.5
68965;BME280;56017;48.680;8.998;2023-03-14T00:36:20;95120;;;9.7;77.5
68965;BME280;56017;48.680;8.998;2023-03-14T00:38:51;95110;;;9.7;77.5
68965;BME280;56017;48.680;8.998;2023-03-14T00:41:22;95110;;;9.7;77.5
68965;BME280;56017;48.680;8.998;2023-03-14T00:43:52;95110;;;9.7;77.5
68965;BME280;56017;48.680;8.998;2023-03-14T00:48:54;95120;;;9.7;77.5
68965;BME280;56017;48.680;8.998;2023-03-14T00:53:57;95120;;;9.8;77.5
68965;BME280;56017;48.680;8.998;2023-03-14T00:56:27;95130;;;9.8;77.5
68965;BME280;56017;48.680;8.998;2023-03-14T00:58:58;95130;;;9.8;77.5
68965;BME280;56017;48.680;8.998;2023-03-14T01:04:00;95140;;;9.9;77.5
68965;BME280;56017;48.680;8.998;2023-03-14T01:09:02;95130;;;9.9;77.5
68965;BME280;56017;48.680;8.998;2023-03-14T01:11:34;95120;;;9.9;77.5
68965;BME280;56017;48.680;8.998;2023-03-14T01:14:04;95130;;;9.9;77.5
68965;BME280;56017;48.680;8.998;2023-03-14T01:16:35;95120;;;9.9;77.5
68965;BME280;56017;48.680;8.998;2023-03-14T01:19:06;95110;;;10;77.5
68965;BME280;56017;48.680;8.998;2023-03-14T01:21:38;95100;;;10;77.5
68965;BME280;56017;48.680;8.998;2023-03-14T01:24:10;95070;;;10;77.5
68965;BME280;56017;48.680;8.998;2023-03-14T01:29:10;95090;;;10;77.5
68965;BME280;56017;48.680;8.998;2023-03-14T01:31:42;95080;;;10;77.5
68965;BME280;56017;48.680;8.998;2023-03-14T01:34:12;95080;;;10;77.5
68965;BME280;56017;48.680;8.998;2023-03-14T01:36:43;95060;;;9.9;77.5
68965;BME280;56017;48.680;8.998;2023-03-14T01:39:14;95050;;;9.9;77.5
68965;BME280;56017;48.680;8.998;2023-03-14T01:41:47;95040;;;9.7;77.5
68965;BME280;56017;48.680;8.998;2023-03-14T01:44:16;95030;;;9.6;77.5
68965;BME280;56017;48.680;8.998;2023-03-14T01:49:20;95020;;;9.4;78
68965;BME280;56017;48.680;8.998;2023-03-14T01:51:52;95020;;;9.4;78
68965;BME280;56017;48.680;8.998;2023-03-14T01:54:25;95020;;;9.4;78
68965;BME280;56017;48.680;8.998;2023-03-14T01:56:53;95020;;;9.4;78
68965;BME280;56017;48.680;8.998;2023-03-14T01:59:22;95030;;;9.4;78
68965;BME280;56017;48.680;8.998;2023-03-14T02:01:53;95030;;;9.4;78
68965;BME280;56017;48.680;8.998;2023-03-14T02:04:24;95030;;;9.4;78
68965;BME280;56017;48.680;8.998;2023-03-14T02:06:59;95030;;;9.4;78
68965;BME280;56017;48.680;8.998;2023-03-14T02:09:26;95030;;;9.5;78
68965;BME280;56017;48.680;8.998;2023-03-14T02:14:30;95040;;;9.6;78
68965;BME280;56017;48.680;8.998;2023-03-14T02:17:06;95030;;;9.6;78
68965;BME280;56017;48.680;8.998;2023-03-14T02:19:35;95030;;;9.6;78
68965;BME280;56017;48.680;8.998;2023-03-14T02:22:05;95020;;;9.5;78
68965;BME280;56017;48.680;8.998;2023-03-14T02:24:34;95020;;;9.5;78
68965;BME280;56017;48.680;8.998;2023-03-14T02:29:35;95010;;;9.5;78
68965;BME280;56017;48.680;8.998;2023-03-14T02:34:36;95000;;;9.5;78
68965;BME280;56017;48.680;8.998;2023-03-14T02:39:39;95010;;;9.5;78
68965;BME280;56017;48.680;8.998;2023-03-14T02:42:09;95000;;;9.5;78
68965;BME280;56017;48.680;8.998;2023-03-14T02:45:28;94990;;;9.5;78
68965;BME280;56017;48.680;8.998;2023-03-14T02:47:10;95000;;;9.5;78
68965;BME280;56017;48.680;8.998;2023-03-14T02:49:41;94990;;;9.5;78
68965;BME280;56017;48.680;8.998;2023-03-14T02:54:43;94980;;;9.5;78
68965;BME280;56017;48.680;8.998;2023-03-14T02:57:14;94970;;;9.4;78
68965;BME280;56017;48.680;8.998;2023-03-14T02:59:45;94950;;;9.4;78
68965;BME280;56017;48.680;8.998;2023-03-14T03:02:17;94960;;;9.5;78
68965;BME280;56017;48.680;8.998;2023-03-14T03:04:47;94950;;;9.5;78
68965;BME280;56017;48.680;8.998;2023-03-14T03:14:51;94940;;;9.4;78
68965;BME280;56017;48.680;8.998;2023-03-14T03:17:22;94930;;;9.4;78
68965;BME280;56017;48.680;8.998;2023-03-14T03:19:53;94930;;;9.4;78
68965;BME280;56017;48.680;8.998;2023-03-14T03:22:25;94920;;;9.4;78
68965;BME280;56017;48.680;8.998;2023-03-14T03:25:03;94930;;;9.4;78
68965;BME280;56017;48.680;8.998;2023-03-14T03:29:57;94920;;;9.4;78
68965;BME280;56017;48.680;8.998;2023-03-14T03:32:28;94910;;;9.4;78
68965;BME280;56017;48.680;8.998;2023-03-14T03:34:59;94920;;;9.5;78
68965;BME280;56017;48.680;8.998;2023-03-14T03:40:02;94910;;;9.5;78
68965;BME280;56017;48.680;8.998;2023-03-14T03:42:36;94900;;;9.4;78
68965;BME280;56017;48.680;8.998;2023-03-14T03:45:03;94900;;;9.4;78
68965;BME280;56017;48.680;8.998;2023-03-14T03:55:06;94890;;;9.4;78
68965;BME280;56017;48.680;8.998;2023-03-14T04:00:09;94890;;;9.4;78
68965;BME280;56017;48.680;8.998;2023-03-14T04:02:40;94900;;;9.4;78
68965;BME280;56017;48.680;8.998;2023-03-14T04:05:10;94880;;;9.4;78
68965;BME280;56017;48.680;8.998;2023-03-14T04:10:12;94880;;;9.4;78
68965;BME280;56017;48.680;8.998;2023-03-14T04:12:44;94890;;;9.4;78
68965;BME280;56017;48.680;8.998;2023-03-14T04:15:14;94880;;;9.4;78
68965;BME280;56017;48.680;8.998;2023-03-14T04:17:45;94870;;;9.5;78
68965;BME280;56017;48.680;8.998;2023-03-14T04:20:16;94870;;;9.5;78
68965;BME280;56017;48.680;8.998;2023-03-14T04:22:48;94870;;;9.5;78
68965;BME280;56017;48.680;8.998;2023-03-14T04:25:18;94870;;;9.5;78
68965;BME280;56017;48.680;8.998;2023-03-14T04:27:49;94860;;;9.4;78
68965;BME280;56017;48.680;8.998;2023-03-14T04:30:20;94860;;;9.4;78
68965;BME280;56017;48.680;8.998;2023-03-14T04:35:23;94850;;;9.4;78
68965;BME280;56017;48.680;8.998;2023-03-14T04:40:24;94850;;;9.4;78
68965;BME280;56017;48.680;8.998;2023-03-14T04:43:02;94850;;;9.4;78
68965;BME280;56017;48.680;8.998;2023-03-14T04:45:26;94850;;;9.4;78
68965;BME280;56017;48.680;8.998;2023-03-14T04:47:57;94850;;;9.4;78
68965;BME280;56017;48.680;8.998;2023-03-14T04:50:28;94840;;;9.4;78
68965;BME280;56017;48.680;8.998;2023-03-14T04:53:00;94840;;;9.3;78
68965;BME280;56017;48.680;8.998;2023-03-14T04:55:30;94830;;;9.3;78
68965;BME280;56017;48.680;8.998;2023-03-14T04:58:01;94820;;;9.3;78
68965;BME280;56017;48.680;8.998;2023-03-14T05:00:32;94820;;;9.3;78
68965;BME280;56017;48.680;8.998;2023-03-14T05:03:03;94810;;;9.2;78
68965;BME280;56017;48.680;8.998;2023-03-14T05:05:34;94810;;;9.2;78
68965;BME280;56017;48.680;8.998;2023-03-14T05:10:42;94800;;;9.2;78
68965;BME280;56017;48.680;8.998;2023-03-14T05:13:07;94800;;;9.1;78
68965;BME280;56017;48.680;8.998;2023-03-14T05:15:38;94790;;;9.2;78
68965;BME280;56017;48.680;8.998;2023-03-14T05:18:10;94790;;;9.2;78
68965;BME280;56017;48.680;8.998;2023-03-14T05:20:40;94790;;;9.2;78
68965;BME280;56017;48.680;8.998;2023-03-14T05:23:11;94800;;;9.2;78
68965;BME280;56017;48.680;8.998;2023-03-14T05:28:13;94800;;;9.3;78
68965;BME280;56017;48.680;8.998;2023-03-14T05:30:44;94790;;;9.4;78
68965;BME280;56017;48.680;8.998;2023-03-14T05:35:46;94790;;;9.4;78
68965;BME280;56017;48.680;8.998;2023-03-14T05:38:17;94780;;;9.4;78
68965;BME280;56017;48.680;8.998;2023-03-14T05:40:48;94780;;;9.4;78
68965;BME280;56017;48.680;8.998;2023-03-14T05:43:20;94780;;;9.4;78
68965;BME280;56017;48.680;8.998;2023-03-14T05:45:50;94780;;;9.3;78
68965;BME280;56017;48.680;8.998;2023-03-14T05:48:21;94780;;;9.3;78
68965;BME280;56017;48.680;8.998;2023-03-14T05:50:54;94780;;;9.3;78
68965;BME280;56017;48.680;8.998;2023-03-14T05:55:56;94770;;;9.3;78
68965;BME280;56017;48.680;8.998;2023-03-14T06:00:56;94780;;;9.3;78
68965;BME280;56017;48.680;8.998;2023-03-14T06:08:29;94800;;;9.5;78
68965;BME280;56017;48.680;8.998;2023-03-14T06:11:06;94790;;;9.6;78
68965;BME280;56017;48.680;8.998;2023-03-14T06:13:32;94780;;;9.7;78
68965;BME280;56017;48.680;8.998;2023-03-14T06:16:02;94790;;;9.7;78
68965;BME280;56017;48.680;8.998;2023-03-14T06:18:36;94790;;;9.7;78
68965;BME280;56017;48.680;8.998;2023-03-14T06:21:03;94790;;;9.7;78
68965;BME280;56017;48.680;8.998;2023-03-14T06:23:35;94780;;;9.7;78
68965;BME280;56017;48.680;8.998;2023-03-14T06:26:05;94770;;;9.7;78
68965;BME280;56017;48.680;8.998;2023-03-14T06:28:43;94780;;;9.7;78
68965;BME280;56017;48.680;8.998;2023-03-14T06:31:07;94770;;;9.7;78
68965;BME280;56017;48.680;8.998;2023-03-14T06:33:38;94760;;;9.7;78
68965;BME280;56017;48.680;8.998;2023-03-14T06:36:09;94750;;;9.7;78
68965;BME280;56017;48.680;8.998;2023-03-14T06:38:43;94750;;;9.7;78
68965;BME280;56017;48.680;8.998;2023-03-14T06:41:11;94750;;;9.8;78
68965;BME280;56017;48.680;8.998;2023-03-14T06:43:42;94760;;;9.8;78
68965;BME280;56017;48.680;8.998;2023-03-14T06:46:13;94760;;;9.9;78
68965;BME280;56017;48.680;8.998;2023-03-14T06:48:51;94750;;;10;78
68965;BME280;56017;48.680;8.998;2023-03-14T06:51:15;94750;;;10.1;78
68965;BME280;56017;48.680;8.998;2023-03-14T06:53:53;94760;;;10.3;78
68965;BME280;56017;48.680;8.998;2023-03-14T06:56:17;94760;;;10.3;78
68965;BME280;56017;48.680;8.998;2023-03-14T07:01:21;94770;;;10.2;78
68965;BME280;56017;48.680;8.998;2023-03-14T07:06:21;94770;;;10.3;78
68965;BME280;56017;48.680;8.998;2023-03-14T07:11:23;94790;;;10.4;78
68965;BME280;56017;48.680;8.998;2023-03-14T07:13:55;94790;;;10.3;78
68965;BME280;56017;48.680;8.998;2023-03-14T07:16:25;94780;;;10.3;78
68965;BME280;56017;48.680;8.998;2023-03-14T07:18:57;94790;;;10.4;78
68965;BME280;56017;48.680;8.998;2023-03-14T07:21:27;94790;;;10.5;78
68965;BME280;56017;48.680;8.998;2023-03-14T07:26:29;94790;;;10.8;78
68965;BME280;56017;48.680;8.998;2023-03-14T07:29:06;94800;;;10.9;77.5
68965;BME280;56017;48.680;8.998;2023-03-14T07:31:31;94800;;;10.9;77.5
68965;BME280;56017;48.680;8.998;2023-03-14T07:36:33;94810;;;11;77.5
68965;BME280;56017;48.680;8.998;2023-03-14T07:41:35;94810;;;11.2;77.5
68965;BME280;56017;48.680;8.998;2023-03-14T07:44:11;94810;;;11.3;77.5
68965;BME280;56017;48.680;8.998;2023-03-14T07:46:37;94810;;;11.4;77.5
68965;BME280;56017;48.680;8.998;2023-03-14T07:49:09;94810;;;11.4;77.5
68965;BME280;56017;48.680;8.998;2023-03-14T07:51:39;94810;;;11.4;77.5
68965;BME280;56017;48.680;8.998;2023-03-14T07:56:41;94800;;;11.7;77.5
68965;BME280;56017;48.680;8.998;2023-03-14T07:59:11;94820;;;11.8;77.5
68965;BME280;56017;48.680;8.998;2023-03-14T08:31:54;94820;;;12.4;77.5
68965;BME280;56017;48.680;8.998;2023-03-14T08:34:25;94830;;;12.3;77.5
68965;BME280;56017;48.680;8.998;2023-03-14T08:36:56;94830;;;12.1;77.5
68965;BME280;56017;48.680;8.998;2023-03-14T08:41:58;94850;;;11.9;78
68965;BME280;56017;48.680;8.998;2023-03-14T08:44:29;94860;;;11.8;77.5
68965;BME280;56017;48.680;8.998;2023-03-14T08:47:00;94840;;;11.9;78
68965;BME280;56017;48.680;8.998;2023-03-14T08:57:04;94850;;;11.8;78
68965;BME280;56017;48.680;8.998;2023-03-14T08:59:34;94860;;;11.6;77
68965;BME280;56017;48.680;8.998;2023-03-14T09:02:06;94860;;;11.3;77.5
68965;BME280;56017;48.680;8.998;2023-03-14T09:04:36;94860;;;11.1;78
68965;BME280;56017;48.680;8.998;2023-03-14T09:07:07;94860;;;11.1;78
68965;BME280;56017;48.680;8.998;2023-03-14T09:09:45;94880;;;11;78.5
68965;BME280;56017;48.680;8.998;2023-03-14T09:12:10;94860;;;11;78.5
68965;BME280;56017;48.680;8.998;2023-03-14T09:17:11;94860;;;11.2;78.5
68965;BME280;56017;48.680;8.998;2023-03-14T09:22:20;94870;;;11.4;78.5
68965;BME280;56017;48.680;8.998;2023-03-14T09:27:16;94860;;;11.6;78.5
68965;BME280;56017;48.680;8.998;2023-03-14T09:29:54;94870;;;11.7;78
68965;BME280;56017;48.680;8.998;2023-03-14T09:32:17;94870;;;11.8;78
68965;BME280;56017;48.680;8.998;2023-03-14T09:37:19;94880;;;11.9;78
68965;BME280;56017;48.680;8.998;2023-03-14T09:39:57;94890;;;11.9;78
68965;BME280;56017;48.680;8.998;2023-03-14T09:42:22;94880;;;11.9;78
68965;BME280;56017;48.680;8.998;2023-03-14T09:45:00;94890;;;11.8;78
68965;BME280;56017;48.680;8.998;2023-03-14T09:47:23;94890;;;11.9;78
68965;BME280;56017;48.680;8.998;2023-03-14T09:52:27;94900;;;11.9;78
68965;BME280;56017;48.680;8.998;2023-03-14T09:54:58;94900;;;12;78
68965;BME280;56017;48.680;8.998;2023-03-14T09:57:27;94890;;;12.2;78.5
68965;BME280;56017;48.680;8.998;2023-03-14T10:05:01;94900;;;12.9;78.5
68965;BME280;56017;48.680;8.998;2023-03-14T10:07:31;94890;;;13.3;78.5
68965;BME280;56017;48.680;8.998;2023-03-14T10:10:08;94880;;;13.9;78.5
68965;BME280;56017;48.680;8.998;2023-03-14T10:12:35;94870;;;14.1;78
68965;BME280;56017;48.680;8.998;2023-03-14T10:17:43;94870;;;14.3;76
68965;BME280;56017;48.680;8.998;2023-03-14T10:22:37;94880;;;13.4;77.5
68965;BME280;56017;48.680;8.998;2023-03-14T10:25:23;94880;;;13.2;77.5
68965;BME280;56017;48.680;8.998;2023-03-14T10:27:39;94890;;;13;77.5
68965;BME280;56017;48.680;8.998;2023-03-14T10:32:42;94880;;;12.9;78
68965;BME280;56017;48.680;8.998;2023-03-14T10:35:20;94880;;;12.8;78
68965;BME280;56017;48.680;8.998;2023-03-14T10:37:51;94870;;;12.6;78
68965;BME280;56017;48.680;8.998;2023-03-14T10:40:14;94890;;;12.4;78
68965;BME280;56017;48.680;8.998;2023-03-14T10:42:45;94880;;;12.2;78.5
68965;BME280;56017;48.680;8.998;2023-03-14T10:47:48;94900;;;12;78.5
68965;BME280;56017;48.680;8.998;2023-03-14T10:50:22;94910;;;11.9;78.5
68965;BME280;56017;48.680;8.998;2023-03-14T10:52:51;94890;;;11.8;78.5
68965;BME280;56017;48.680;8.998;2023-03-14T10:55:20;94900;;;11.8;78.5
68965;BME280;56017;48.680;8.998;2023-03-14T10:57:51;94910;;;11.9;78.5
68965;BME280;56017;48.680;8.998;2023-03-14T11:10:33;94940;;;11.4;79
68965;BME280;56017;48.680;8.998;2023-03-14T11:20:32;94940;;;11.1;79
68965;BME280;56017;48.680;8.998;2023-03-14T11:23:03;94950;;;11;79
68965;BME280;56017;48.680;8.998;2023-03-14T11:25:32;94930;;;10.7;79
68965;BME280;56017;48.680;8.998;2023-03-14T11:28:15;94930;;;10.3;79.5
68965;BME280;56017;48.680;8.998;2023-03-14T11:36:10;94940;;;10.2;80
68965;BME280;56017;48.680;8.998;2023-03-14T11:38:12;94950;;;10.3;79.5
68965;BME280;56017;48.680;8.998;2023-03-14T11:40:37;94950;;;10.3;79.5
68965;BME280;56017;48.680;8.998;2023-03-14T11:43:13;94940;;;10.3;79.5
68965;BME280;56017;48.680;8.998;2023-03-14T11:45:41;94950;;;10.3;79.5
68965;BME280;56017;48.680;8.998;2023-03-14T11:48:20;94970;;;10.5;79.5
68965;BME280;56017;48.680;8.998;2023-03-14T11:50:42;94960;;;10.6;79.5
68965;BME280;56017;48.680;8.998;2023-03-14T11:53:14;94950;;;10.8;79
68965;BME280;56017;48.680;8.998;2023-03-14T11:58:17;94980;;;10.8;78.5
68965;BME280;56017;48.680;8.998;2023-03-14T12:00:47;94980;;;10.6;78.5
68965;BME280;56017;48.680;8.998;2023-03-14T12:03:19;94990;;;10.5;79
68965;BME280;56017;48.680;8.998;2023-03-14T12:05:50;94990;;;10.4;79
68965;BME280;56017;48.680;8.998;2023-03-14T12:08:24;95000;;;10.5;79
68965;BME280;56017;48.680;8.998;2023-03-14T12:10:56;95030;;;10.6;79
68965;BME280;56017;48.680;8.998;2023-03-14T12:13:20;95030;;;11;79
68965;BME280;56017;48.680;8.998;2023-03-14T12:15:58;95050;;;11.4;79
68965;BME280;56017;48.680;8.998;2023-03-14T12:18:29;95060;;;11.4;78.5
68965;BME280;56017;48.680;8.998;2023-03-14T12:20:53;95050;;;11.1;78.5
68965;BME280;56017;48.680;8.998;2023-03-14T12:23:24;95060;;;11.2;79
68965;BME280;56017;48.680;8.998;2023-03-14T12:26:16;95060;;;11.3;79
68965;BME280;56017;48.680;8.998;2023-03-14T12:28:32;95070;;;11.5;79
68965;BME280;56017;48.680;8.998;2023-03-14T12:33:28;95110;;;12.1;79
68965;BME280;56017;48.680;8.998;2023-03-14T12:35:59;95100;;;12.1;78.5
68965;BME280;56017;48.680;8.998;2023-03-14T12:38:41;95110;;;12.3;78.5
68965;BME280;56017;48.680;8.998;2023-03-14T12:43:32;95120;;;12.6;78.5
68965;BME280;56017;48.680;8.998;2023-03-14T12:46:08;95120;;;12.7;78
68965;BME280;56017;48.680;8.998;2023-03-14T12:48:37;95130;;;12.8;78
68965;BME280;56017;48.680;8.998;2023-03-14T12:53:39;95140;;;12.5;77.5
68965;BME280;56017;48.680;8.998;2023-03-14T12:56:19;95160;;;12.4;78
68965;BME280;56017;48.680;8.998;2023-03-14T12:58:39;95180;;;11.8;78
68965;BME280;56017;48.680;8.998;2023-03-14T13:01:17;95200;;;11.4;79
68965;BME280;56017;48.680;8.998;2023-03-14T13:03:42;95240;;;11.2;79.5
68965;BME280;56017;48.680;8.998;2023-03-14T13:08:42;95240;;;11.5;79
68965;BME280;56017;48.680;8.998;2023-03-14T13:11:19;95240;;;11.8;79
68965;BME280;56017;48.680;8.998;2023-03-14T13:13:46;95230;;;12;78.5
68965;BME280;56017;48.680;8.998;2023-03-14T13:18:46;95280;;;11;79
68965;BME280;56017;48.680;8.998;2023-03-14T13:21:18;95290;;;10.5;79.5
68965;BME280;56017;48.680;8.998;2023-03-14T13:24:04;95280;;;10.3;80
68965;BME280;56017;48.680;8.998;2023-03-14T13:26:25;95290;;;10.5;80
68965;BME280;56017;48.680;8.998;2023-03-14T13:28:49;95290;;;10.5;79.5
68965;BME280;56017;48.680;8.998;2023-03-14T13:31:27;95310;;;10.3;79.5
68965;BME280;56017;48.680;8.998;2023-03-14T13:33:59;95300;;;10.2;80
68965;BME280;56017;48.680;8.998;2023-03-14T13:38:57;95320;;;9.9;80
68965;BME280;56017;48.680;8.998;2023-03-14T13:41:24;95330;;;9.9;80
68965;BME280;56017;48.680;8.998;2023-03-14T13:43:58;95350;;;9.9;79.5
68965;BME280;56017;48.680;8.998;2023-03-14T13:46:26;95380;;;10;80
68965;BME280;56017;48.680;8.998;2023-03-14T13:48:58;95380;;;9.9;79.5
68965;BME280;56017;48.680;8.998;2023-03-14T13:51:36;95380;;;10;80
68965;BME280;56017;48.680;8.998;2023-03-14T13:53:59;95370;;;10.1;79.5
68965;BME280;56017;48.680;8.998;2023-03-14T13:56:31;95390;;;9.9;79.5
68965;BME280;56017;48.680;8.998;2023-03-14T13:59:01;95410;;;9.9;79.5
68965;BME280;56017;48.680;8.998;2023-03-14T14:01:32;95420;;;9.8;79.5
68965;BME280;56017;48.680;8.998;2023-03-14T14:04:07;95390;;;9.7;80
68965;BME280;56017;48.680;8.998;2023-03-14T14:06:49;95430;;;9.9;79.5
68965;BME280;56017;48.680;8.998;2023-03-14T14:09:14;95420;;;9.8;79.5
68965;BME280;56017;48.680;8.998;2023-03-14T14:11:46;95440;;;10;80
68965;BME280;56017;48.680;8.998;2023-03-14T14:14:08;95430;;;10.1;79.5
68965;BME280;56017;48.680;8.998;2023-03-14T14:16:45;95440;;;10;79
68965;BME280;56017;48.680;8.998;2023-03-14T14:19:15;95440;;;9.8;79.5
68965;BME280;56017;48.680;8.998;2023-03-14T14:21:40;95440;;;9.7;80
68965;BME280;56017;48.680;8.998;2023-03-14T14:24:12;95440;;;9.6;79.5
68965;BME280;56017;48.680;8.998;2023-03-14T14:27:14;95440;;;9.5;79.5
68965;BME280;56017;48.680;8.998;2023-03-14T14:29:30;95450;;;9.4;79.5
68965;BME280;56017;48.680;8.998;2023-03-14T14:31:44;95450;;;9.4;79.5
68965;BME280;56017;48.680;8.998;2023-03-14T14:34:17;95460;;;9.4;79.5
68965;BME280;56017;48.680;8.998;2023-03-14T14:36:55;95470;;;9.5;79.5
68965;BME280;56017;48.680;8.998;2023-03-14T14:39:19;95470;;;9.5;79.5
68965;BME280;56017;48.680;8.998;2023-03-14T15:22:04;95530;;;10.7;78
68965;BME280;56017;48.680;8.998;2023-03-14T15:24:41;95550;;;10.1;79
68965;BME280;56017;48.680;8.998;2023-03-14T15:27:08;95560;;;9.8;79.5
68965;BME280;56017;48.680;8.998;2023-03-14T15:29:36;95550;;;9.7;79.5
68965;BME280;56017;48.680;8.998;2023-03-14T15:32:10;95550;;;9.5;79.5
68965;BME280;56017;48.680;8.998;2023-03-14T15:34:38;95550;;;9.6;79.5
68965;BME280;56017;48.680;8.998;2023-03-14T15:37:11;95550;;;9.8;79.5
68965;BME280;56017;48.680;8.998;2023-03-14T15:39:40;95560;;;9.9;79.5
68965;BME280;56017;48.680;8.998;2023-03-14T15:42:11;95560;;;9.9;79
68965;BME280;56017;48.680;8.998;2023-03-14T15:44:42;95560;;;9.7;79.5
68965;BME280;56017;48.680;8.998;2023-03-14T15:47:13;95560;;;9.7;79.5
68965;BME280;56017;48.680;8.998;2023-03-14T15:49:44;95560;;;9.7;79.5
68965;BME280;56017;48.680;8.998;2023-03-14T15:52:15;95560;;;9.7;79.5
68965;BME280;56017;48.680;8.998;2023-03-14T15:54:46;95570;;;9.8;79.5
68965;BME280;56017;48.680;8.998;2023-03-14T15:57:17;95570;;;10.7;78.5
68965;BME280;56017;48.680;8.998;2023-03-14T15:59:48;95570;;;10.5;78.5
68965;BME280;56017;48.680;8.998;2023-03-14T16:02:19;95590;;;10.5;79
68965;BME280;56017;48.680;8.998;2023-03-14T16:04:50;95590;;;10.5;79
68965;BME280;56017;48.680;8.998;2023-03-14T16:07:21;95580;;;10.2;78.5
68965;BME280;56017;48.680;8.998;2023-03-14T16:09:52;95590;;;10.4;79
68965;BME280;56017;48.680;8.998;2023-03-14T16:14:54;95590;;;12.4;76.5
68965;BME280;56017;48.680;8.998;2023-03-14T16:19:56;95590;;;11.6;76.5
68965;BME280;56017;48.680;8.998;2023-03-14T16:22:26;95600;;;10.7;77
68965;BME280;56017;48.680;8.998;2023-03-14T16:24:59;95590;;;10;78
68965;BME280;56017;48.680;8.998;2023-03-14T16:32:36;95600;;;9.2;79
68965;BME280;56017;48.680;8.998;2023-03-14T16:35:00;95610;;;9.1;79.5
68965;BME280;56017;48.680;8.998;2023-03-14T16:37:31;95610;;;8.9;79.5
68965;BME280;56017;48.680;8.998;2023-03-14T16:40:02;95620;;;8.9;79.5
68965;BME280;56017;48.680;8.998;2023-03-14T16:42:33;95620;;;8.9;79.5
68965;BME280;56017;48.680;8.998;2023-03-14T16:45:11;95620;;;8.8;79.5
68965;BME280;56017;48.680;8.998;2023-03-14T16:47:35;95630;;;8.7;79.5
68965;BME280;56017;48.680;8.998;2023-03-14T16:50:06;95640;;;8.6;79.5
68965;BME280;56017;48.680;8.998;2023-03-14T16:52:38;95640;;;8.6;79.5
68965;BME280;56017;48.680;8.998;2023-03-14T16:55:15;95640;;;8.6;79.5
68965;BME280;56017;48.680;8.998;2023-03-14T16:57:46;95650;;;8.6;79.5
68965;BME280;56017;48.680;8.998;2023-03-14T17:00:10;95670;;;8.5;79
68965;BME280;56017;48.680;8.998;2023-03-14T17:02:41;95670;;;8.4;79.5
68965;BME280;56017;48.680;8.998;2023-03-14T17:05:12;95660;;;8.3;79.5
68965;BME280;56017;48.680;8.998;2023-03-14T17:07:43;95670;;;8.1;79
68965;BME280;56017;48.680;8.998;2023-03-14T17:10:14;95670;;;7.9;79.5
68965;BME280;56017;48.680;8.998;2023-03-14T17:12:45;95680;;;7.7;79.5
68965;BME280;56017;48.680;8.998;2023-03-14T17:15:23;95680;;;7.6;79.5
68965;BME280;56017;48.680;8.998;2023-03-14T17:17:47;95690;;;7.4;79.5
68965;BME280;56017;48.680;8.998;2023-03-14T17:20:18;95700;;;7.3;79.5
68965;BME280;56017;48.680;8.998;2023-03-14T17:22:57;95690;;;7.2;79.5
68965;BME280;56017;48.680;8.998;2023-03-14T17:32:53;95720;;;7.1;80
68965;BME280;56017;48.680;8.998;2023-03-14T17:35:31;95730;;;7.1;79.5
68965;BME280;56017;48.680;8.998;2023-03-14T17:38:02;95730;;;7.1;79.5
68965;BME280;56017;48.680;8.998;2023-03-14T17:40:32;95740;;;7.1;79.5
68965;BME280;56017;48.680;8.998;2023-03-14T17:42:57;95740;;;7;79.5
68965;BME280;56017;48.680;8.998;2023-03-14T17:45:34;95750;;;6.9;79.5
68965;BME280;56017;48.680;8.998;2023-03-14T17:48:05;95740;;;6.8;79.5
68965;BME280;56017;48.680;8.998;2023-03-14T17:50:49;95760;;;6.8;79.5
68965;BME280;56017;48.680;8.998;2023-03-14T17:53:06;95760;;;6.7;80
68965;BME280;56017;48.680;8.998;2023-03-14T17:58:00;95760;;;6.6;80
68965;BME280;56017;48.680;8.998;2023-03-14T18:00:30;95750;;;6.6;80
68965;BME280;56017;48.680;8.998;2023-03-14T18:03:01;95770;;;6.6;79.5
68965;BME280;56017;48.680;8.998;2023-03-14T18:05:33;95790;;;6.5;79.5
68965;BME280;56017;48.680;8.998;2023-03-14T18:08:04;95820;;;6.3;79
68965;BME280;56017;48.680;8.998;2023-03-14T18:13:06;95840;;;4.7;80
68965;BME280;56017;48.680;8.998;2023-03-14T18:15:36;95830;;;4.5;80.5
68965;BME280;56017;48.680;8.998;2023-03-14T18:18:07;95830;;;4.4;80.5
68965;BME280;56017;48.680;8.998;2023-03-14T18:20:38;95830;;;4.3;80.5
68965;BME280;56017;48.680;8.998;2023-03-14T18:23:10;95830;;;4.3;80.5
68965;BME280;56017;48.680;8.998;2023-03-14T18:25:40;95840;;;4.3;80.5
68965;BME280;56017;48.680;8.998;2023-03-14T18:28:11;95850;;;4.2;80.5
68965;BME280;56017;48.680;8.998;2023-03-14T18:30:42;95850;;;4.2;80.5
68965;BME280;56017;48.680;8.998;2023-03-14T18:33:14;95850;;;4.2;80.5
68965;BME280;56017;48.680;8.998;2023-03-14T18:35:45;95860;;;4.2;80.5
68965;BME280;56017;48.680;8.998;2023-03-14T18:38:16;95850;;;4.2;80
68965;BME280;56017;48.680;8.998;2023-03-14T18:40:46;95860;;;4.2;80
68965;BME280;56017;48.680;8.998;2023-03-14T18:43:17;95850;;;4.3;80
68965;BME280;56017;48.680;8.998;2023-03-14T18:45:48;95850;;;4.4;80
68965;BME280;56017;48.680;8.998;2023-03-14T18:48:19;95850;;;4.5;80
68965;BME280;56017;48.680;8.998;2023-03-14T18:53:21;95850;;;4.6;80
68965;BME280;56017;48.680;8.998;2023-03-14T18:55:53;95850;;;4.6;80
68965;BME280;56017;48.680;8.998;2023-03-14T18:58:23;95850;;;4.6;80
68965;BME280;56017;48.680;8.998;2023-03-14T19:00:55;95860;;;4.6;80
68965;BME280;56017;48.680;8.998;2023-03-14T19:03:25;95870;;;4.6;80
68965;BME280;56017;48.680;8.998;2023-03-14T19:05:56;95870;;;4.6;80
68965;BME280;56017;48.680;8.998;2023-03-14T19:08:27;95880;;;4.6;80